www.bettendroffer.lu
Wetterdaten: Woche 11.04.11 - 17.04.11 (KW15)
Datum Zeit Temp. 1 ext. Temp. 3 Feuchte 1 Feuchte 3 Luftdruck Regen Wind Richtung Taupunkt Windchill
11.04.2011 00:00 9,3 C 8,7 C 28 % 49 % 1017 hPa 0,0 l/m 0,0 km/h (0 Bft) - - -8,5 C 9,3 C
11.04.2011 01:00 8,1 C 7,4 C 30 % 52 % 1017 hPa 0,0 l/m 0,0 km/h (0 Bft) - - -8,6 C 8,1 C
11.04.2011 02:00 7,2 C 6,4 C 32 % 55 % 1017 hPa 0,0 l/m 0,0 km/h (0 Bft) - - -8,6 C 7,2 C
11.04.2011 03:00 6,4 C 5,6 C 35 % 59 % 1017 hPa 0,0 l/m 0,0 km/h (0 Bft) - - -8,1 C 6,4 C
11.04.2011 04:00 5,7 C 4,9 C 37 % 62 % 1017 hPa 0,0 l/m 0,0 km/h (0 Bft) - - -8,0 C 5,7 C
11.04.2011 05:00 5,1 C 4,3 C 39 % 64 % 1017 hPa 0,0 l/m 0,0 km/h (0 Bft) - - -7,7 C 5,1 C
11.04.2011 06:00 4,6 C 3,8 C 41 % 66 % 1017 hPa 0,0 l/m 0,0 km/h (0 Bft) - - -7,7 C 4,6 C
11.04.2011 07:00 4,4 C 3,7 C 43 % 68 % 1017 hPa 0,0 l/m 0,0 km/h (0 Bft) - - -7,2 C 4,4 C
11.04.2011 08:00 5,2 C 5,2 C 43 % 68 % 1017 hPa 0,0 l/m 0,0 km/h (0 Bft) - - -6,4 C 5,2 C
11.04.2011 09:00 7,4 C 11,1 C 42 % 48 % 1017 hPa 0,0 l/m 0,0 km/h (0 Bft) - - -4,7 C 7,4 C
11.04.2011 10:00 10,8 C 19,9 C 34 % 27 % 1017 hPa 0,0 l/m 0,0 km/h (0 Bft) - - -4,7 C 10,8 C
11.04.2011 11:00 15,3 C 30,2 C 20 % 20 % 1016 hPa 0,0 l/m 0,0 km/h (0 Bft) - - -7,5 C 15,3 C
11.04.2011 12:00 20,4 C 35,8 C 20 % 20 % 1016 hPa 0,0 l/m 0,0 km/h (0 Bft) - - -3,3 C 20,4 C
11.04.2011 13:00 28,0 C 34,8 C 20 % 20 % 1015 hPa 0,0 l/m 0,0 km/h (0 Bft) - - 2,9 C 28,0 C
11.04.2011 14:00 28,7 C 28,7 C 20 % 20 % 1014 hPa 0,0 l/m 0,0 km/h (0 Bft) - - 3,5 C 28,7 C
11.04.2011 15:00 27,9 C 30,2 C 20 % 20 % 1014 hPa 0,0 l/m 0,0 km/h (0 Bft) - - 2,9 C 27,9 C
11.04.2011 16:00 28,0 C 28,1 C 20 % 20 % 1013 hPa 0,0 l/m 0,0 km/h (0 Bft) - - 2,9 C 28,0 C
11.04.2011 17:00 26,9 C 25,6 C 20 % 20 % 1012 hPa 0,0 l/m 0,0 km/h (0 Bft) - - 2,0 C 26,9 C
11.04.2011 18:00 24,3 C 23,5 C 20 % 20 % 1012 hPa 0,0 l/m 0,0 km/h (0 Bft) - - -0,1 C 24,3 C
11.04.2011 19:00 22,3 C 21,7 C 20 % 20 % 1012 hPa 0,0 l/m 0,0 km/h (0 Bft) - - -1,8 C 22,3 C
11.04.2011 20:00 20,5 C 19,7 C 20 % 24 % 1012 hPa 0,0 l/m 0,0 km/h (0 Bft) - - -3,2 C 20,5 C
11.04.2011 21:00 18,2 C 17,3 C 20 % 32 % 1013 hPa 0,0 l/m 0,0 km/h (0 Bft) - - -5,1 C 18,2 C
11.04.2011 22:00 16,9 C 16,3 C 20 % 38 % 1013 hPa 0,0 l/m 0,0 km/h (0 Bft) - - -6,2 C 16,9 C
11.04.2011 23:00 15,3 C 14,4 C 20 % 38 % 1013 hPa 0,0 l/m 0,0 km/h (0 Bft) - - -7,5 C 15,3 C
12.04.2011 00:00 13,8 C 13,0 C 23 % 43 % 1013 hPa 0,0 l/m 0,0 km/h (0 Bft) - - -7,3 C 13,8 C
12.04.2011 01:00 12,9 C 12,3 C 24 % 45 % 1013 hPa 0,0 l/m 0,0 km/h (0 Bft) - - -7,3 C 12,9 C
12.04.2011 02:00 12,6 C 12,4 C 30 % 47 % 1013 hPa 0,0 l/m 0,0 km/h (0 Bft) - - -4,7 C 12,6 C
12.04.2011 03:00 12,0 C 11,7 C 33 % 50 % 1013 hPa 0,0 l/m 0,0 km/h (0 Bft) - - -4,0 C 12,0 C
12.04.2011 04:00 9,6 C 9,4 C 29 % 48 % 1014 hPa 0,0 l/m 0,0 km/h (0 Bft) - - -7,8 C 9,6 C
12.04.2011 05:00 9,4 C 9,2 C 27 % 46 % 1015 hPa 0,0 l/m 0,0 km/h (0 Bft) - - -8,9 C 9,4 C
12.04.2011 06:00 8,8 C 8,1 C 28 % 47 % 1015 hPa 0,0 l/m 0,0 km/h (0 Bft) - - -9,0 C 8,8 C
12.04.2011 07:00 8,5 C 7,9 C 30 % 50 % 1016 hPa 0,0 l/m 0,0 km/h (0 Bft) - - -8,1 C 8,5 C
12.04.2011 08:00 8,8 C 8,8 C 29 % 47 % 1016 hPa 0,0 l/m 0,0 km/h (0 Bft) - - -8,2 C 8,8 C
12.04.2011 09:00 9,4 C 10,3 C 23 % 39 % 1017 hPa 0,0 l/m 0,0 km/h (0 Bft) - - -11,0 C 9,4 C
12.04.2011 10:00 9,6 C 10,1 C 20 % 37 % 1017 hPa 0,0 l/m 0,0 km/h (0 Bft) - - -12,2 C 9,6 C
12.04.2011 11:00 10,6 C 14,8 C 20 % 25 % 1018 hPa 0,0 l/m 0,0 km/h (0 Bft) - - -11,4 C 10,6 C
12.04.2011 12:00 10,2 C 16,8 C 20 % 23 % 1018 hPa 0,0 l/m 0,0 km/h (0 Bft) - - -11,7 C 10,2 C
12.04.2011 13:00 10,2 C 11,3 C 20 % 34 % 1019 hPa 0,0 l/m 0,0 km/h (0 Bft) - - -11,7 C 10,2 C
12.04.2011 14:00 12,8 C 14,5 C 20 % 22 % 1019 hPa 0,0 l/m 0,0 km/h (0 Bft) - - -9,6 C 12,8 C
12.04.2011 15:00 12,5 C 13,8 C 20 % 20 % 1019 hPa 0,0 l/m 0,0 km/h (0 Bft) - - -9,8 C 12,5 C
12.04.2011 16:00 10,1 C 10,9 C 20 % 37 % 1019 hPa 0,4 l/m 0,0 km/h (0 Bft) - - -11,8 C 10,1 C
12.04.2011 17:00 10,1 C 11,3 C 20 % 27 % 1019 hPa 0,0 l/m 0,0 km/h (0 Bft) - - -11,8 C 10,1 C
12.04.2011 18:00 10,1 C 9,9 C 20 % 34 % 1019 hPa 0,7 l/m 0,0 km/h (0 Bft) - - -11,8 C 10,1 C
12.04.2011 19:00 9,1 C 8,4 C 20 % 38 % 1019 hPa 0,0 l/m 0,0 km/h (0 Bft) - - -12,6 C 9,1 C
12.04.2011 20:00 9,1 C 7,3 C 20 % 30 % 1020 hPa 0,0 l/m 0,0 km/h (0 Bft) - - -12,6 C 9,1 C
12.04.2011 21:00 9,1 C 4,8 C 20 % 38 % 1021 hPa 0,0 l/m 0,0 km/h (0 Bft) - - -12,6 C 9,1 C
12.04.2011 22:00 4,1 C 3,3 C 95 % 45 % 1021 hPa 0,0 l/m 0,0 km/h (0 Bft) - - 3,4 C 4,1 C
12.04.2011 23:00 4,1 C 2,8 C 95 % 49 % 1021 hPa 0,0 l/m 0,0 km/h (0 Bft) - - 3,4 C 4,1 C
13.04.2011 00:00 4,1 C 2,0 C 95 % 52 % 1021 hPa 0,0 l/m 0,0 km/h (0 Bft) - - 3,4 C 4,1 C
13.04.2011 01:00 2,8 C 0,9 C 66 % 56 % 1021 hPa 0,0 l/m 0,0 km/h (0 Bft) - - -4,2 C 2,8 C
13.04.2011 02:00 1,0 C 0,3 C 38 % 58 % 1020 hPa 0,0 l/m 0,0 km/h (0 Bft) - - -11,9 C 1,0 C
13.04.2011 03:00 0,4 C -0,3 C 41 % 61 % 1020 hPa 0,0 l/m 0,0 km/h (0 Bft) - - -11,3 C 0,4 C
13.04.2011 04:00 -0,1 C -0,8 C 42 % 63 % 1019 hPa 0,0 l/m 0,0 km/h (0 Bft) - - -11,4 C -0,1 C
13.04.2011 05:00 -0,6 C -1,1 C 47 % 66 % 1019 hPa 0,0 l/m 0,0 km/h (0 Bft) - - -10,6 C -0,6 C
13.04.2011 06:00 -0,9 C -1,5 C 47 % 67 % 1019 hPa 0,0 l/m 0,0 km/h (0 Bft) - - -10,8 C -0,9 C
13.04.2011 07:00 -1,0 C -1,5 C 48 % 68 % 1019 hPa 0,0 l/m 0,0 km/h (0 Bft) - - -10,7 C -1,0 C
13.04.2011 08:00 0,1 C 0,5 C 52 % 71 % 1019 hPa 0,0 l/m 0,0 km/h (0 Bft) - - -8,7 C 0,1 C
13.04.2011 09:00 3,2 C 8,4 C 55 % 54 % 1019 hPa 0,0 l/m 0,0 km/h (0 Bft) - - -5,1 C 3,2 C
13.04.2011 10:00 7,6 C 21,0 C 30 % 20 % 1018 hPa 0,0 l/m 0,0 km/h (0 Bft) - - -9,6 C 7,6 C
13.04.2011 11:00 9,2 C 19,0 C 20 % 20 % 1018 hPa 0,0 l/m 0,0 km/h (0 Bft) - - -12,6 C 9,2 C
13.04.2011 12:00 9,2 C 16,2 C 20 % 20 % 1018 hPa 0,0 l/m 0,0 km/h (0 Bft) - - -12,6 C 9,2 C
13.04.2011 13:00 9,2 C 18,2 C 20 % 20 % 1017 hPa 0,0 l/m 0,0 km/h (0 Bft) - - -12,6 C 9,2 C
13.04.2011 14:00 9,2 C 18,0 C 20 % 20 % 1016 hPa 0,0 l/m 0,0 km/h (0 Bft) - - -12,6 C 9,2 C
13.04.2011 15:00 9,2 C 16,5 C 20 % 20 % 1015 hPa 0,0 l/m 0,0 km/h (0 Bft) - - -12,6 C 9,2 C
13.04.2011 16:00 9,2 C 14,2 C 20 % 20 % 1015 hPa 0,0 l/m 0,0 km/h (0 Bft) - - -12,6 C 9,2 C
13.04.2011 17:00 12,5 C 15,4 C 20 % 20 % 1015 hPa 0,0 l/m 0,0 km/h (0 Bft) - - -9,8 C 12,5 C
13.04.2011 18:00 13,3 C 12,9 C 20 % 20 % 1015 hPa 0,0 l/m 0,0 km/h (0 Bft) - - -9,2 C 13,3 C
13.04.2011 19:00 12,1 C 11,6 C 20 % 20 % 1014 hPa 0,0 l/m 0,0 km/h (0 Bft) - - -10,2 C 12,1 C
13.04.2011 20:00 11,3 C 9,8 C 95 % 21 % 1014 hPa 0,0 l/m 0,0 km/h (0 Bft) - - 10,5 C 11,3 C
13.04.2011 21:00 8,6 C 8,3 C 95 % 27 % 1014 hPa 0,0 l/m 0,0 km/h (0 Bft) - - 7,8 C 8,6 C
13.04.2011 22:00 8,3 C 7,4 C 95 % 33 % 1014 hPa 0,0 l/m 0,0 km/h (0 Bft) - - 7,5 C 8,3 C
13.04.2011 23:00 8,3 C 6,7 C 95 % 39 % 1014 hPa 0,0 l/m 0,0 km/h (0 Bft) - - 7,5 C 8,3 C
14.04.2011 00:00 8,3 C 6,1 C 95 % 43 % 1014 hPa 0,0 l/m 0,0 km/h (0 Bft) - - 7,5 C 8,3 C
14.04.2011 01:00 8,3 C 5,7 C 95 % 45 % 1014 hPa 0,0 l/m 0,0 km/h (0 Bft) - - 7,5 C 8,3 C
14.04.2011 02:00 5,9 C 5,0 C 95 % 48 % 1013 hPa 0,0 l/m 0,0 km/h (0 Bft) - - 5,2 C 5,9 C
14.04.2011 03:00 4,5 C 3,7 C 95 % 50 % 1013 hPa 0,0 l/m 0,0 km/h (0 Bft) - - 3,8 C 4,5 C
14.04.2011 04:00 4,0 C 3,5 C 63 % 55 % 1013 hPa 0,0 l/m 0,0 km/h (0 Bft) - - -4,1 C 4,0 C
14.04.2011 05:00 4,2 C 3,8 C 33 % 57 % 1013 hPa 0,0 l/m 0,0 km/h (0 Bft) - - -10,8 C 4,2 C
14.04.2011 06:00 4,4 C 4,0 C 35 % 58 % 1012 hPa 0,0 l/m 0,0 km/h (0 Bft) - - -9,9 C 4,4 C
14.04.2011 07:00 4,7 C 4,3 C 36 % 58 % 1012 hPa 0,0 l/m 0,0 km/h (0 Bft) - - -9,1 C 4,7 C
14.04.2011 08:00 5,3 C 5,2 C 35 % 57 % 1013 hPa 0,0 l/m 0,0 km/h (0 Bft) - - -8,9 C 5,3 C
14.04.2011 09:00 7,0 C 7,4 C 32 % 49 % 1013 hPa 0,0 l/m 0,0 km/h (0 Bft) - - -8,6 C 7,0 C
14.04.2011 10:00 9,9 C 14,1 C 20 % 25 % 1013 hPa 0,0 l/m 0,0 km/h (0 Bft) - - -11,9 C 9,9 C
14.04.2011 11:00 13,0 C 17,0 C 20 % 20 % 1013 hPa 0,0 l/m 0,0 km/h (0 Bft) - - -9,4 C 13,0 C
14.04.2011 12:00 13,1 C 15,7 C 20 % 20 % 1013 hPa 0,0 l/m 0,0 km/h (0 Bft) - - -9,3 C 13,1 C
14.04.2011 13:00 13,4 C 14,0 C 20 % 20 % 1013 hPa 0,0 l/m 0,0 km/h (0 Bft) - - -9,1 C 13,4 C
14.04.2011 14:00 14,0 C 14,4 C 20 % 20 % 1012 hPa 0,0 l/m 0,0 km/h (0 Bft) - - -8,5 C 14,0 C
14.04.2011 15:00 12,1 C 12,0 C 20 % 20 % 1012 hPa 0,0 l/m 0,0 km/h (0 Bft) - - -10,2 C 12,1 C
14.04.2011 16:00 12,3 C 12,0 C 20 % 20 % 1011 hPa 0,0 l/m 0,0 km/h (0 Bft) - - -10,0 C 12,3 C
14.04.2011 17:00 12,4 C 12,1 C 20 % 20 % 1011 hPa 0,0 l/m 0,0 km/h (0 Bft) - - -9,9 C 12,4 C
14.04.2011 18:00 11,6 C 11,4 C 20 % 20 % 1012 hPa 0,0 l/m 0,0 km/h (0 Bft) - - -10,5 C 11,6 C
14.04.2011 19:00 11,0 C 10,7 C 20 % 24 % 1012 hPa 0,0 l/m 0,0 km/h (0 Bft) - - -11,1 C 11,0 C
14.04.2011 20:00 10,1 C 9,1 C 58 % 35 % 1012 hPa 0,0 l/m 0,0 km/h (0 Bft) - - -1,2 C 10,1 C
14.04.2011 21:00 9,5 C 8,5 C 95 % 37 % 1012 hPa 0,0 l/m 0,0 km/h (0 Bft) - - 8,7 C 9,5 C
14.04.2011 22:00 9,5 C 7,9 C 95 % 40 % 1013 hPa 0,0 l/m 0,0 km/h (0 Bft) - - 8,7 C 9,5 C
14.04.2011 23:00 9,5 C 7,1 C 95 % 46 % 1013 hPa 0,0 l/m 0,0 km/h (0 Bft) - - 8,7 C 9,5 C
15.04.2011 00:00 9,5 C 6,6 C 95 % 47 % 1013 hPa 0,0 l/m 0,0 km/h (0 Bft) - - 8,7 C 9,5 C
15.04.2011 01:00 6,8 C 6,3 C 27 % 50 % 1013 hPa 0,0 l/m 0,0 km/h (0 Bft) - - -10,9 C 6,8 C
15.04.2011 02:00 6,3 C 5,8 C 28 % 51 % 1013 hPa 0,0 l/m 0,0 km/h (0 Bft) - - -10,8 C 6,3 C
15.04.2011 03:00 4,8 C 4,3 C 31 % 53 % 1013 hPa 0,0 l/m 0,0 km/h (0 Bft) - - -11,1 C 4,8 C
15.04.2011 04:00 2,8 C 2,1 C 34 % 56 % 1013 hPa 0,0 l/m 0,0 km/h (0 Bft) - - -11,5 C 2,8 C
15.04.2011 05:00 1,6 C 0,9 C 38 % 59 % 1013 hPa 0,0 l/m 0,0 km/h (0 Bft) - - -11,3 C 1,6 C
15.04.2011 06:00 0,9 C 0,1 C 39 % 62 % 1013 hPa 0,0 l/m 0,0 km/h (0 Bft) - - -11,5 C 0,9 C
15.04.2011 07:00 0,4 C -0,3 C 42 % 64 % 1013 hPa 0,0 l/m 0,0 km/h (0 Bft) - - -11,1 C 0,4 C
15.04.2011 08:00 1,7 C 2,1 C 42 % 67 % 1014 hPa 0,0 l/m 0,0 km/h (0 Bft) - - -9,9 C 1,7 C
15.04.2011 09:00 4,9 C 11,3 C 39 % 34 % 1014 hPa 0,0 l/m 0,0 km/h (0 Bft) - - -7,9 C 4,9 C
15.04.2011 10:00 8,9 C 22,8 C 20 % 20 % 1014 hPa 0,0 l/m 0,0 km/h (0 Bft) - - -12,8 C 8,9 C
15.04.2011 11:00 11,7 C 24,5 C 20 % 20 % 1014 hPa 0,0 l/m 0,0 km/h (0 Bft) - - -10,5 C 11,7 C
15.04.2011 12:00 14,3 C 24,6 C 20 % 20 % 1014 hPa 0,0 l/m 0,0 km/h (0 Bft) - - -8,3 C 14,3 C
15.04.2011 13:00 23,6 C 22,7 C 20 % 20 % 1014 hPa 0,0 l/m 0,0 km/h (0 Bft) - - -0,6 C 23,6 C
15.04.2011 14:00 23,4 C 19,8 C 20 % 20 % 1014 hPa 0,0 l/m 0,0 km/h (0 Bft) - - -0,9 C 23,4 C
15.04.2011 15:00 22,5 C 20,8 C 20 % 20 % 1013 hPa 0,0 l/m 0,0 km/h (0 Bft) - - -1,6 C 22,5 C
15.04.2011 16:00 24,9 C 21,5 C 20 % 20 % 1013 hPa 0,0 l/m 0,0 km/h (0 Bft) - - 0,4 C 24,9 C
15.04.2011 17:00 21,4 C 15,9 C 20 % 20 % 1013 hPa 0,0 l/m 0,0 km/h (0 Bft) - - -2,5 C 21,4 C
15.04.2011 18:00 17,9 C 14,9 C 20 % 20 % 1013 hPa 0,0 l/m 0,0 km/h (0 Bft) - - -5,4 C 17,9 C
15.04.2011 19:00 13,8 C 12,9 C 20 % 20 % 1013 hPa 0,0 l/m 0,0 km/h (0 Bft) - - -8,7 C 13,8 C
15.04.2011 20:00 11,9 C 10,3 C 20 % 20 % 1014 hPa 0,0 l/m 0,0 km/h (0 Bft) - - -10,4 C 11,9 C
15.04.2011 21:00 11,7 C 7,4 C 20 % 26 % 1014 hPa 0,0 l/m 0,0 km/h (0 Bft) - - -10,5 C 11,7 C
15.04.2011 22:00 11,7 C 5,5 C 20 % 32 % 1015 hPa 0,0 l/m 0,0 km/h (0 Bft) - - -10,5 C 11,7 C
15.04.2011 23:00 11,7 C 3,3 C 20 % 41 % 1015 hPa 0,0 l/m 0,0 km/h (0 Bft) - - -10,5 C 11,7 C
16.04.2011 00:00 11,7 C 1,9 C 20 % 46 % 1015 hPa 0,0 l/m 0,0 km/h (0 Bft) - - -10,5 C 11,7 C
16.04.2011 01:00 2,6 C 0,8 C 95 % 50 % 1015 hPa 0,0 l/m 0,0 km/h (0 Bft) - - 1,9 C 2,6 C
16.04.2011 02:00 2,6 C 0,1 C 95 % 54 % 1015 hPa 0,0 l/m 0,0 km/h (0 Bft) - - 1,9 C 2,6 C
16.04.2011 03:00 0,4 C -0,7 C 95 % 57 % 1015 hPa 0,0 l/m 0,0 km/h (0 Bft) - - -0,4 C 0,4 C
16.04.2011 04:00 -0,2 C -1,2 C 95 % 60 % 1015 hPa 0,0 l/m 0,0 km/h (0 Bft) - - -0,9 C -0,2 C
16.04.2011 05:00 -0,2 C -1,7 C 95 % 61 % 1016 hPa 0,0 l/m 0,0 km/h (0 Bft) - - -0,9 C -0,2 C
16.04.2011 06:00 -0,2 C -2,0 C 95 % 63 % 1016 hPa 0,0 l/m 0,0 km/h (0 Bft) - - -0,9 C -0,2 C
16.04.2011 07:00 -0,2 C -1,9 C 95 % 64 % 1016 hPa 0,0 l/m 0,0 km/h (0 Bft) - - -0,9 C -0,2 C
16.04.2011 08:00 -0,2 C 0,5 C 95 % 65 % 1016 hPa 0,0 l/m 0,0 km/h (0 Bft) - - -0,9 C -0,2 C
16.04.2011 09:00 -0,2 C 8,3 C 95 % 36 % 1017 hPa 0,0 l/m 0,0 km/h (0 Bft) - - -0,9 C -0,2 C
16.04.2011 10:00 -0,2 C 20,0 C 95 % 20 % 1017 hPa 0,0 l/m 0,0 km/h (0 Bft) - - -0,9 C -0,2 C
16.04.2011 11:00 -0,2 C 26,5 C 95 % 20 % 1017 hPa 0,0 l/m 0,0 km/h (0 Bft) - - -0,9 C -0,2 C
16.04.2011 12:00 -0,2 C 17,5 C 58 % 20 % 1017 hPa 0,0 l/m 0,0 km/h (0 Bft) - - -10,6 C -0,2 C
16.04.2011 13:00 17,3 C 18,2 C 20 % 20 % 1016 hPa 0,0 l/m 0,0 km/h (0 Bft) - - -5,8 C 17,3 C
16.04.2011 14:00 17,2 C 17,5 C 20 % 20 % 1016 hPa 0,0 l/m 0,0 km/h (0 Bft) - - -5,9 C 17,2 C
16.04.2011 15:00 20,0 C 19,6 C 20 % 20 % 1016 hPa 0,0 l/m 0,0 km/h (0 Bft) - - -3,6 C 20,0 C
16.04.2011 16:00 20,5 C 19,9 C 20 % 20 % 1016 hPa 0,0 l/m 0,0 km/h (0 Bft) - - -3,2 C 20,5 C
16.04.2011 17:00 19,9 C 16,4 C 20 % 20 % 1015 hPa 0,0 l/m 0,0 km/h (0 Bft) - - -3,8 C 19,9 C
16.04.2011 18:00 16,0 C 14,1 C 20 % 20 % 1015 hPa 0,0 l/m 0,0 km/h (0 Bft) - - -6,9 C 16,0 C
16.04.2011 19:00 13,5 C 12,8 C 20 % 20 % 1016 hPa 0,0 l/m 0,0 km/h (0 Bft) - - -9,0 C 13,5 C
16.04.2011 20:00 11,7 C 10,4 C 20 % 22 % 1016 hPa 0,0 l/m 0,0 km/h (0 Bft) - - -10,5 C 11,7 C
16.04.2011 21:00 11,7 C 9,0 C 20 % 29 % 1016 hPa 0,0 l/m 0,0 km/h (0 Bft) - - -10,5 C 11,7 C
16.04.2011 22:00 9,6 C 7,2 C 58 % 34 % 1016 hPa 0,0 l/m 0,0 km/h (0 Bft) - - -1,9 C 9,6 C
16.04.2011 23:00 6,9 C 5,9 C 95 % 40 % 1017 hPa 0,0 l/m 0,0 km/h (0 Bft) - - 6,2 C 6,9 C
17.04.2011 00:00 6,3 C 5,1 C 95 % 45 % 1017 hPa 0,0 l/m 0,0 km/h (0 Bft) - - 5,6 C 6,3 C
17.04.2011 01:00 5,0 C 3,8 C 95 % 47 % 1017 hPa 0,0 l/m 0,0 km/h (0 Bft) - - 4,3 C 5,0 C
17.04.2011 02:00 3,7 C 2,3 C 95 % 53 % 1017 hPa 0,0 l/m 0,0 km/h (0 Bft) - - 3,0 C 3,7 C
17.04.2011 03:00 2,4 C 1,2 C 95 % 56 % 1017 hPa 0,0 l/m 0,0 km/h (0 Bft) - - 1,7 C 2,4 C
17.04.2011 04:00 1,5 C 0,3 C 95 % 59 % 1017 hPa 0,0 l/m 0,0 km/h (0 Bft) - - 0,8 C 1,5 C
17.04.2011 05:00 0,8 C 0,1 C 66 % 63 % 1017 hPa 0,0 l/m 0,0 km/h (0 Bft) - - -6,1 C 0,8 C
17.04.2011 06:00 1,5 C 1,0 C 39 % 64 % 1017 hPa 0,0 l/m 0,0 km/h (0 Bft) - - -11,0 C 1,5 C
17.04.2011 07:00 2,7 C 2,3 C 38 % 63 % 1018 hPa 0,0 l/m 0,0 km/h (0 Bft) - - -10,2 C 2,7 C
17.04.2011 08:00 4,8 C 4,8 C 35 % 55 % 1018 hPa 0,0 l/m 0,0 km/h (0 Bft) - - -9,4 C 4,8 C
17.04.2011 09:00 7,1 C 7,8 C 27 % 43 % 1018 hPa 0,0 l/m 0,0 km/h (0 Bft) - - -10,7 C 7,1 C
17.04.2011 10:00 10,6 C 12,5 C 20 % 29 % 1018 hPa 0,0 l/m 0,0 km/h (0 Bft) - - -11,4 C 10,6 C
17.04.2011 11:00 14,6 C 17,0 C 20 % 20 % 1019 hPa 0,0 l/m 0,0 km/h (0 Bft) - - -8,1 C 14,6 C
17.04.2011 12:00 16,5 C 18,2 C 20 % 20 % 1019 hPa 0,0 l/m 0,0 km/h (0 Bft) - - -6,6 C 16,5 C
17.04.2011 13:00 17,7 C 19,0 C 20 % 20 % 1018 hPa 0,0 l/m 0,0 km/h (0 Bft) - - -5,5 C 17,7 C
17.04.2011 14:00 21,9 C 21,0 C 20 % 20 % 1017 hPa 0,0 l/m 0,0 km/h (0 Bft) - - -2,1 C 21,9 C
17.04.2011 15:00 19,6 C 19,4 C 20 % 20 % 1017 hPa 0,0 l/m 0,0 km/h (0 Bft) - - -4,0 C 19,6 C
17.04.2011 16:00 19,0 C 17,5 C 20 % 20 % 1017 hPa 0,0 l/m 0,0 km/h (0 Bft) - - -4,5 C 19,0 C
17.04.2011 17:00 18,0 C 16,8 C 20 % 20 % 1017 hPa 0,0 l/m 0,0 km/h (0 Bft) - - -5,3 C 18,0 C
17.04.2011 18:00 18,1 C 15,8 C 20 % 20 % 1016 hPa 0,0 l/m 0,0 km/h (0 Bft) - - -5,2 C 18,1 C
17.04.2011 19:00 15,4 C 14,3 C 20 % 20 % 1016 hPa 0,0 l/m 0,0 km/h (0 Bft) - - -7,4 C 15,4 C
17.04.2011 20:00 12,5 C 11,7 C 20 % 20 % 1016 hPa 0,0 l/m 0,0 km/h (0 Bft) - - -9,8 C 12,5 C
17.04.2011 21:00 11,6 C 8,8 C 20 % 28 % 1017 hPa 0,0 l/m 0,0 km/h (0 Bft) - - -10,6 C 11,6 C
17.04.2011 22:00 11,6 C 7,8 C 20 % 30 % 1017 hPa 0,0 l/m 0,0 km/h (0 Bft) - - -10,6 C 11,6 C
17.04.2011 23:00 11,6 C 5,6 C 20 % 35 % 1017 hPa 0,0 l/m 0,0 km/h (0 Bft) - - -10,6 C 11,6 C
Min-Datum _ 13.04.11 16.04.11 11.04.11 11.04.11 14.04.11 - 11.04.11 - 16.04.11 13.04.11
_ Min-Zeit 07:11 06:41 11:11 10:41 16:41 - 00:12 - 12:41 07:11
Minimum _ -1,1 C -2,1 C 20 % 20 % 1011 hPa - 0,0 km/h (0 Bft) - -20,4 C -1,1 C
Max-Datum _ 11.04.11 11.04.11 12.04.11 13.04.11 12.04.11 12.04.11 11.04.11 - 13.04.11 11.04.11
_ Max-Zeit 13:41 12:41 22:11 08:41 21:11 18:41 00:12 - 20:11 13:41
Maximum _ 31,7 C 36,9 C 95 % 71 % 1021 hPa 0,7 l/m 0,0 km/h
- - (0 Bft)
- 10,5 C 31,7 C
Durchschnitt _ 9,9 C 10,6 C 40 % 37 % 1016 hPa #1,1 l/m 0,0 km/h (0 Bft) - - -5,8 C 9,9 C
©2001-2010 Bettendroffer Claude